createdAt,value
2022-12-19T00:00:25.604Z,49.50
2022-12-19T00:02:53.786Z,43.97
2022-12-19T00:05:23.493Z,46.00
2022-12-19T00:07:54.691Z,47.53
2022-12-19T00:10:22.677Z,41.57
2022-12-19T00:12:50.596Z,39.27
2022-12-19T00:15:18.771Z,47.37
2022-12-19T00:17:46.665Z,46.20
2022-12-19T00:20:15.293Z,49.40
2022-12-19T00:22:46.647Z,49.70
2022-12-19T00:25:14.614Z,41.47
2022-12-19T00:27:43.877Z,42.90
2022-12-19T00:30:12.675Z,47.97
2022-12-19T00:32:40.784Z,45.27
2022-12-19T00:35:08.910Z,43.27
2022-12-19T00:37:36.850Z,44.63
2022-12-19T00:40:10.103Z,42.07
2022-12-19T00:42:37.886Z,42.33
2022-12-19T00:45:05.947Z,41.07
2022-12-19T00:47:34.009Z,45.73
2022-12-19T00:50:01.793Z,46.40
2022-12-19T00:52:29.869Z,44.30
2022-12-19T00:54:59.950Z,42.43
2022-12-19T00:57:27.773Z,49.03
2022-12-19T00:59:55.706Z,46.90
2022-12-19T01:02:23.647Z,43.23
2022-12-19T01:04:51.658Z,44.60
2022-12-19T01:07:19.557Z,46.97
2022-12-19T01:09:47.485Z,47.13
2022-12-19T01:12:35.179Z,49.90
2022-12-19T01:15:04.496Z,48.23
2022-12-19T01:17:44.328Z,46.10
2022-12-19T01:20:13.228Z,46.37
2022-12-19T01:22:41.156Z,44.43
2022-12-19T01:25:09.089Z,49.60
2022-12-19T01:27:37.010Z,42.13
2022-12-19T01:30:05.901Z,44.00
2022-12-19T01:32:37.497Z,44.27
2022-12-19T01:35:05.604Z,43.83
2022-12-19T01:37:33.430Z,42.83
2022-12-19T01:40:01.211Z,37.70
2022-12-19T01:42:36.473Z,43.23
2022-12-19T01:45:13.622Z,40.80
2022-12-19T01:47:47.526Z,40.27
2022-12-19T01:50:27.541Z,43.20
2022-12-19T01:52:55.513Z,45.03
2022-12-19T01:55:23.428Z,45.93
2022-12-19T01:57:51.183Z,42.07
2022-12-19T02:00:19.070Z,40.90
2022-12-19T02:02:58.425Z,42.63
2022-12-19T02:05:26.476Z,39.07
2022-12-19T02:07:54.507Z,42.77
2022-12-19T02:10:22.472Z,43.07
2022-12-19T02:12:50.365Z,45.80
2022-12-19T02:15:18.318Z,42.67
2022-12-19T02:17:55.861Z,46.23
2022-12-19T02:20:54.223Z,46.47
2022-12-19T02:23:29.785Z,39.67
2022-12-19T02:26:19.415Z,43.07
2022-12-19T02:28:58.782Z,44.77
2022-12-19T02:31:32.745Z,40.90
2022-12-19T02:34:19.000Z,45.30
2022-12-19T02:37:00.800Z,43.30
2022-12-19T02:40:06.924Z,43.93
2022-12-19T02:42:40.456Z,42.70
2022-12-19T02:45:09.567Z,40.73
2022-12-19T02:47:37.374Z,38.23
2022-12-19T02:50:06.113Z,41.30
2022-12-19T02:52:33.807Z,38.00
2022-12-19T02:55:12.427Z,37.87
2022-12-19T02:58:07.143Z,41.10
2022-12-19T03:00:36.522Z,41.30
2022-12-19T03:03:23.099Z,40.80
2022-12-19T03:06:06.079Z,40.93
2022-12-19T03:08:38.808Z,43.73
2022-12-19T03:11:14.696Z,42.33
2022-12-19T03:14:08.623Z,42.80
2022-12-19T03:16:37.805Z,39.03
2022-12-19T03:19:06.399Z,39.47
2022-12-19T03:21:45.102Z,38.80
2022-12-19T03:24:13.454Z,44.23
2022-12-19T03:27:03.777Z,39.73
2022-12-19T03:30:01.814Z,40.80
2022-12-19T03:32:30.167Z,43.03
2022-12-19T03:35:17.291Z,36.37
2022-12-19T03:37:45.147Z,40.30
2022-12-19T03:40:15.743Z,36.17
2022-12-19T03:43:02.126Z,38.20
2022-12-19T03:45:49.584Z,39.13
2022-12-19T03:48:25.399Z,41.77
2022-12-19T03:51:14.459Z,41.70
2022-12-19T03:54:07.637Z,41.40
2022-12-19T03:56:52.381Z,44.37
2022-12-19T03:59:43.006Z,42.53
2022-12-19T04:02:11.202Z,40.17
2022-12-19T04:04:41.715Z,40.70
2022-12-19T04:07:09.654Z,38.60
2022-12-19T04:09:38.181Z,40.90
2022-12-19T04:12:07.861Z,40.33
2022-12-19T04:14:36.974Z,42.63
2022-12-19T04:17:32.561Z,35.97
2022-12-19T04:20:07.347Z,36.60
2022-12-19T04:22:45.156Z,37.30
2022-12-19T04:25:15.364Z,39.40
2022-12-19T04:27:49.767Z,43.00
2022-12-19T04:30:18.587Z,34.93
2022-12-19T04:32:46.707Z,39.87
2022-12-19T04:35:14.790Z,35.07
2022-12-19T04:37:42.704Z,35.37
2022-12-19T04:40:11.280Z,39.70
2022-12-19T04:42:39.071Z,36.90
2022-12-19T04:45:07.448Z,38.63
2022-12-19T04:47:35.364Z,38.77
2022-12-19T04:50:03.222Z,39.03
2022-12-19T04:52:31.088Z,42.23
2022-12-19T04:54:58.887Z,36.20
2022-12-19T04:57:26.802Z,37.90
2022-12-19T04:59:54.668Z,39.10
2022-12-19T05:02:22.582Z,41.93
2022-12-19T05:04:50.797Z,32.23
2022-12-19T05:07:21.454Z,36.73
2022-12-19T05:09:50.055Z,36.37
2022-12-19T05:12:17.869Z,42.50
2022-12-19T05:14:46.005Z,37.07
2022-12-19T05:17:13.840Z,38.20
2022-12-19T05:19:41.806Z,36.20
2022-12-19T05:22:09.847Z,42.23
2022-12-19T05:24:37.764Z,40.83
2022-12-19T05:27:05.637Z,45.87
2022-12-19T05:29:33.467Z,45.33
2022-12-19T05:32:01.520Z,43.67
2022-12-19T05:34:29.537Z,46.80
2022-12-19T05:36:57.382Z,45.57
2022-12-19T05:39:25.802Z,45.23
2022-12-19T05:42:12.484Z,41.97
2022-12-19T05:44:40.737Z,42.03
2022-12-19T05:47:08.558Z,47.00
2022-12-19T05:49:36.344Z,43.80
2022-12-19T05:52:04.288Z,47.77
2022-12-19T05:54:32.364Z,44.93
2022-12-19T05:57:00.171Z,49.47
2022-12-19T05:59:28.401Z,49.53
2022-12-19T06:01:56.881Z,44.50
2022-12-19T06:04:25.242Z,42.80
2022-12-19T06:06:53.131Z,44.10
2022-12-19T06:09:21.192Z,39.67
2022-12-19T06:11:49.374Z,38.70
2022-12-19T06:14:17.236Z,43.57
2022-12-19T06:16:45.174Z,45.53
2022-12-19T06:19:13.048Z,44.70
2022-12-19T06:21:47.986Z,44.33
2022-12-19T06:24:16.576Z,43.20
2022-12-19T06:26:44.935Z,44.97
2022-12-19T06:29:12.926Z,46.97
2022-12-19T06:31:40.706Z,43.77
2022-12-19T06:34:09.557Z,44.60
2022-12-19T06:36:37.694Z,49.40
2022-12-19T06:39:05.617Z,51.43
2022-12-19T06:41:51.911Z,55.87
2022-12-19T06:44:19.880Z,58.70
2022-12-19T06:46:47.704Z,58.87
2022-12-19T06:49:15.688Z,67.47
2022-12-19T06:51:43.772Z,56.10
2022-12-19T06:54:12.581Z,61.93
2022-12-19T06:56:41.553Z,64.00
2022-12-19T06:59:11.163Z,56.30
2022-12-19T07:01:55.406Z,60.87
2022-12-19T07:04:30.856Z,63.37
2022-12-19T07:06:58.884Z,67.67
2022-12-19T07:09:28.149Z,65.07
2022-12-19T07:11:56.205Z,63.03
2022-12-19T07:14:24.002Z,56.60
2022-12-19T07:16:52.126Z,61.37
2022-12-19T07:19:20.310Z,60.73
2022-12-19T07:21:48.304Z,57.27
2022-12-19T07:24:16.217Z,60.17
2022-12-19T07:26:44.336Z,61.33
2022-12-19T07:29:12.220Z,56.30
2022-12-19T07:31:40.117Z,59.97
2022-12-19T07:34:07.954Z,64.03
2022-12-19T07:36:36.075Z,64.13
2022-12-19T07:39:03.874Z,68.80
2022-12-19T07:41:31.638Z,69.73
2022-12-19T07:44:00.050Z,58.33
2022-12-19T07:46:30.864Z,62.87
2022-12-19T07:48:58.596Z,65.70
2022-12-19T07:51:27.563Z,62.37
2022-12-19T07:53:55.412Z,68.50
2022-12-19T07:56:23.253Z,71.60
2022-12-19T07:58:51.719Z,66.33
2022-12-19T08:01:19.678Z,58.30
2022-12-19T08:03:47.757Z,62.63
2022-12-19T08:06:15.691Z,69.63
2022-12-19T08:08:43.675Z,62.43
2022-12-19T08:11:14.187Z,67.93
2022-12-19T08:13:46.521Z,60.93
2022-12-19T08:16:15.088Z,64.07
2022-12-19T08:18:43.199Z,58.10
2022-12-19T08:21:11.549Z,58.90
2022-12-19T08:23:42.364Z,56.93
2022-12-19T08:26:13.431Z,53.43
2022-12-19T08:28:41.879Z,62.17
2022-12-19T08:31:15.197Z,62.43
2022-12-19T08:33:43.118Z,52.67
2022-12-19T08:36:17.404Z,57.77
2022-12-19T08:38:45.159Z,51.27
2022-12-19T08:41:13.039Z,54.37
2022-12-19T08:43:40.848Z,62.87
2022-12-19T08:46:08.965Z,68.67
2022-12-19T08:48:37.097Z,59.60
2022-12-19T08:51:07.400Z,61.47
2022-12-19T08:53:36.814Z,71.00
2022-12-19T08:56:09.459Z,69.07
2022-12-19T08:58:37.320Z,60.53
2022-12-19T09:01:07.384Z,59.80
2022-12-19T09:03:43.468Z,59.10
2022-12-19T09:06:23.468Z,64.87
2022-12-19T09:08:51.224Z,62.40
2022-12-19T09:11:20.677Z,72.00
2022-12-19T09:13:49.115Z,60.83
2022-12-19T09:16:21.175Z,60.50
2022-12-19T09:18:50.740Z,65.57
2022-12-19T09:21:19.426Z,57.23
2022-12-19T09:23:51.502Z,64.63
2022-12-19T09:26:20.058Z,62.07
2022-12-19T09:28:48.944Z,62.97
2022-12-19T09:31:18.789Z,68.83
2022-12-19T09:33:46.691Z,62.47
2022-12-19T09:36:22.306Z,57.80
2022-12-19T09:38:50.504Z,56.20
2022-12-19T09:41:44.264Z,58.13
2022-12-19T09:44:29.147Z,56.87
2022-12-19T09:47:02.203Z,55.10
2022-12-19T09:49:41.703Z,54.57
2022-12-19T09:52:19.710Z,62.27
2022-12-19T09:54:59.695Z,61.63
2022-12-19T09:57:33.267Z,56.30
2022-12-19T10:00:08.101Z,59.50
2022-12-19T10:02:54.291Z,60.10
2022-12-19T10:07:11.442Z,58.20
2022-12-19T10:08:35.050Z,68.00
2022-12-19T10:12:39.486Z,58.93
2022-12-19T10:14:12.700Z,60.47
2022-12-19T10:17:23.796Z,62.37
2022-12-19T10:20:16.649Z,67.77
2022-12-19T10:23:03.006Z,60.00
2022-12-19T10:25:40.432Z,65.43
2022-12-19T10:28:31.419Z,61.17
2022-12-19T10:31:01.511Z,62.90
2022-12-19T10:33:38.904Z,59.83
2022-12-19T10:36:10.028Z,62.30
2022-12-19T10:39:33.086Z,64.33
2022-12-19T10:42:09.228Z,55.67
2022-12-19T10:44:37.268Z,56.10
2022-12-19T10:47:05.069Z,66.37
2022-12-19T10:49:32.994Z,66.97
2022-12-19T10:52:05.154Z,65.37
2022-12-19T10:54:42.957Z,65.60
2022-12-19T10:57:21.204Z,63.87
2022-12-19T11:00:06.706Z,59.93
2022-12-19T11:02:44.695Z,65.23
2022-12-19T11:05:40.110Z,69.83
2022-12-19T11:08:07.828Z,59.33
2022-12-19T11:12:42.262Z,61.47
2022-12-19T11:16:26.733Z,62.63
2022-12-19T11:19:13.645Z,63.10
2022-12-19T11:29:15.712Z,104.53
2022-12-19T11:30:44.326Z,59.70
2022-12-19T11:30:45.890Z,67.93
2022-12-19T11:30:47.663Z,66.83
2022-12-19T11:31:44.162Z,67.97
2022-12-19T11:33:32.902Z,59.13
2022-12-19T11:36:01.853Z,61.23
2022-12-19T11:38:38.915Z,62.63
2022-12-19T11:41:14.111Z,61.23
2022-12-19T11:43:46.130Z,60.37
2022-12-19T11:46:22.123Z,63.57
2022-12-19T11:48:59.064Z,59.90
2022-12-19T11:51:36.030Z,60.40
2022-12-19T11:54:11.004Z,54.60
2022-12-19T11:56:39.295Z,54.10
2022-12-19T11:59:21.835Z,56.63
2022-12-19T12:02:24.989Z,60.80
2022-12-19T12:05:32.702Z,58.23
2022-12-19T12:10:59.125Z,55.67
2022-12-19T12:18:11.894Z,53.07
2022-12-19T12:20:08.660Z,59.60
2022-12-19T12:30:59.687Z,55.43
2022-12-19T12:31:23.723Z,57.43
2022-12-19T12:31:42.782Z,60.73
2022-12-19T12:31:44.954Z,54.57
2022-12-19T12:31:49.442Z,52.00
2022-12-19T12:35:43.571Z,53.50
2022-12-19T12:41:49.832Z,54.30
2022-12-19T12:44:18.029Z,53.20
2022-12-19T12:47:40.333Z,61.27
2022-12-19T12:50:09.631Z,57.27
2022-12-19T12:52:45.264Z,54.43
2022-12-19T12:55:23.285Z,64.63
2022-12-19T12:57:51.122Z,59.47
2022-12-19T13:00:30.117Z,62.13
2022-12-19T13:03:04.952Z,56.90
2022-12-19T13:05:36.718Z,64.67
2022-12-19T13:08:33.247Z,62.30
2022-12-19T13:11:03.380Z,61.13
2022-12-19T13:13:51.770Z,53.27
2022-12-19T13:16:44.092Z,55.23
2022-12-19T13:19:28.708Z,55.40
2022-12-19T13:22:06.291Z,54.37
2022-12-19T13:24:53.495Z,62.00
2022-12-19T13:27:21.208Z,57.70
2022-12-19T13:30:15.979Z,58.57
2022-12-19T13:32:43.799Z,56.13
2022-12-19T13:36:33.306Z,54.37
2022-12-19T13:39:55.291Z,57.10
2022-12-19T13:41:47.826Z,53.30
2022-12-19T13:44:15.799Z,57.30
2022-12-19T13:46:44.429Z,56.17
2022-12-19T13:49:31.752Z,56.93
2022-12-19T13:52:03.529Z,62.50
2022-12-19T13:54:35.804Z,55.87
2022-12-19T13:57:09.012Z,53.93
2022-12-19T13:59:38.853Z,55.33
2022-12-19T14:02:19.421Z,53.97
2022-12-19T14:04:47.335Z,57.93
2022-12-19T14:07:36.421Z,50.23
2022-12-19T14:11:40.203Z,55.00
2022-12-19T14:13:53.789Z,53.40
2022-12-19T14:16:01.382Z,55.43
2022-12-19T14:18:44.351Z,60.67
2022-12-19T14:22:05.900Z,52.00
2022-12-19T14:24:20.673Z,84.00
2022-12-19T14:28:18.860Z,52.57
2022-12-19T14:30:32.197Z,49.43
2022-12-19T14:33:46.476Z,54.93
2022-12-19T14:36:10.400Z,55.03
2022-12-19T14:39:23.899Z,52.40
2022-12-19T14:42:01.740Z,49.43
2022-12-19T14:52:08.423Z,52.50
2022-12-19T14:54:16.319Z,50.37
2022-12-19T14:54:18.686Z,54.20
2022-12-19T14:54:52.426Z,54.13
2022-12-19T14:56:52.089Z,50.07
2022-12-19T14:59:19.976Z,51.87
2022-12-19T15:02:12.992Z,49.17
2022-12-19T15:05:00.464Z,53.10
2022-12-19T15:07:29.694Z,54.60
2022-12-19T15:11:09.296Z,52.90
2022-12-19T15:14:52.681Z,53.20
2022-12-19T15:16:35.749Z,55.07
2022-12-19T15:19:03.942Z,59.67
2022-12-19T15:21:31.819Z,50.90
2022-12-19T15:23:59.584Z,61.23
2022-12-19T15:26:32.203Z,54.17
2022-12-19T15:29:00.170Z,51.83
2022-12-19T15:31:37.659Z,53.87
2022-12-19T15:34:46.649Z,47.47
2022-12-19T15:37:15.780Z,57.17
2022-12-19T15:39:44.130Z,53.87
2022-12-19T15:42:25.083Z,56.50
2022-12-19T15:44:53.390Z,58.83
2022-12-19T15:47:34.956Z,56.53
2022-12-19T15:50:07.946Z,56.27
2022-12-19T15:52:35.775Z,53.60
2022-12-19T15:55:03.557Z,57.33
2022-12-19T15:57:39.211Z,53.20
2022-12-19T16:00:18.143Z,52.37
2022-12-19T16:05:34.000Z,53.47
2022-12-19T16:08:01.828Z,48.57
2022-12-19T16:10:29.706Z,55.77
2022-12-19T16:12:58.048Z,53.53
2022-12-19T16:15:28.558Z,49.03
2022-12-19T16:17:56.763Z,53.30
2022-12-19T16:20:26.619Z,54.17
2022-12-19T16:22:54.589Z,52.87
2022-12-19T16:25:22.641Z,48.57
2022-12-19T16:27:55.043Z,46.00
2022-12-19T16:30:30.273Z,55.47
2022-12-19T16:32:58.254Z,52.80
2022-12-19T16:36:01.706Z,53.37
2022-12-19T16:38:15.679Z,44.63
2022-12-19T16:40:43.920Z,47.53
2022-12-19T16:43:16.586Z,51.33
2022-12-19T16:45:45.565Z,49.17
2022-12-19T16:48:21.559Z,46.10
2022-12-19T16:50:49.501Z,54.70
2022-12-19T16:53:17.681Z,47.27
2022-12-19T16:55:45.685Z,48.37
2022-12-19T16:58:21.840Z,52.87
2022-12-19T17:00:50.237Z,59.13
2022-12-19T17:03:42.122Z,57.13
2022-12-19T17:06:14.698Z,52.17
2022-12-19T17:08:42.796Z,50.50
2022-12-19T17:11:25.872Z,47.83
2022-12-19T17:14:01.984Z,46.63
2022-12-19T17:16:30.308Z,59.00
2022-12-19T17:18:59.116Z,49.83
2022-12-19T17:21:26.945Z,45.43
2022-12-19T17:23:54.844Z,43.33
2022-12-19T17:26:22.896Z,42.37
2022-12-19T17:28:50.876Z,49.30
2022-12-19T17:31:25.217Z,47.50
2022-12-19T17:33:53.289Z,48.50
2022-12-19T17:36:25.387Z,49.90
2022-12-19T17:38:54.672Z,50.33
2022-12-19T17:41:22.566Z,45.40
2022-12-19T17:43:50.525Z,49.50
2022-12-19T17:46:22.509Z,47.33
2022-12-19T17:48:52.518Z,44.43
2022-12-19T17:51:21.211Z,73.07
2022-12-19T17:53:49.037Z,51.80
2022-12-19T17:56:17.999Z,44.43
2022-12-19T17:58:45.890Z,47.97
2022-12-19T18:01:23.751Z,46.60
2022-12-19T18:03:52.442Z,49.03
2022-12-19T18:06:20.449Z,48.30
2022-12-19T18:08:48.436Z,46.43
2022-12-19T18:11:20.137Z,44.03
2022-12-19T18:13:50.488Z,43.73
2022-12-19T18:16:21.981Z,47.63
2022-12-19T18:18:49.751Z,45.30
2022-12-19T18:21:19.174Z,47.57
2022-12-19T18:23:47.537Z,45.73
2022-12-19T18:26:15.456Z,44.13
2022-12-19T18:28:43.505Z,43.73
2022-12-19T18:31:19.336Z,47.70
2022-12-19T18:33:48.155Z,48.63
2022-12-19T18:36:21.127Z,48.00
2022-12-19T18:38:50.028Z,48.67
2022-12-19T18:41:18.524Z,53.73
2022-12-19T18:43:46.727Z,58.77
2022-12-19T18:46:18.448Z,57.23
2022-12-19T18:48:46.652Z,57.43
2022-12-19T18:51:17.911Z,46.50
2022-12-19T18:53:46.168Z,49.37
2022-12-19T18:56:14.259Z,48.37
2022-12-19T18:58:42.238Z,47.03
2022-12-19T19:01:20.335Z,52.23
2022-12-19T19:03:56.497Z,50.23
2022-12-19T19:06:26.962Z,46.90
2022-12-19T19:08:54.904Z,44.93
2022-12-19T19:11:24.522Z,46.83
2022-12-19T19:13:52.913Z,44.97
2022-12-19T19:16:26.244Z,50.13
2022-12-19T19:18:55.790Z,53.50
2022-12-19T19:21:31.346Z,53.87
2022-12-19T19:24:10.061Z,56.40
2022-12-19T19:26:37.974Z,59.07
2022-12-19T19:29:06.261Z,52.00
2022-12-19T19:31:35.703Z,49.40
2022-12-19T19:34:15.779Z,53.60
2022-12-19T19:36:44.940Z,45.77
2022-12-19T19:39:12.833Z,45.80
2022-12-19T19:41:40.725Z,44.73
2022-12-19T19:44:08.675Z,53.13
2022-12-19T19:46:42.971Z,51.83
2022-12-19T19:49:10.883Z,54.97
2022-12-19T19:51:38.663Z,48.80
2022-12-19T19:54:06.599Z,54.17
2022-12-19T19:56:34.439Z,56.57
2022-12-19T19:59:02.289Z,49.43
2022-12-19T20:01:30.366Z,58.67
2022-12-19T20:03:58.303Z,56.70
2022-12-19T20:06:26.258Z,53.70
2022-12-19T20:08:54.057Z,56.63
2022-12-19T20:11:22.208Z,52.53
2022-12-19T20:13:50.166Z,63.37
2022-12-19T20:16:19.203Z,57.30
2022-12-19T20:18:51.783Z,51.87
2022-12-19T20:21:20.885Z,58.63
2022-12-19T20:23:48.785Z,69.83
2022-12-19T20:26:17.601Z,65.73
2022-12-19T20:28:50.096Z,66.57
2022-12-19T20:31:27.505Z,56.67
2022-12-19T20:33:56.224Z,58.57
2022-12-19T20:36:24.341Z,53.50
2022-12-19T20:38:52.791Z,45.40
2022-12-19T20:41:20.666Z,44.50
2022-12-19T20:43:49.384Z,50.67
2022-12-19T20:46:19.016Z,49.43
2022-12-19T20:48:47.204Z,57.87
2022-12-19T20:51:15.342Z,52.03
2022-12-19T20:53:43.328Z,58.07
2022-12-19T20:56:14.237Z,51.57
2022-12-19T20:58:42.137Z,51.30
2022-12-19T21:01:09.955Z,56.27
2022-12-19T21:03:38.397Z,60.50
2022-12-19T21:06:06.675Z,54.73
2022-12-19T21:08:34.716Z,55.53
2022-12-19T21:11:03.383Z,57.53
2022-12-19T21:13:31.359Z,71.80
2022-12-19T21:16:01.002Z,56.47
2022-12-19T21:18:29.443Z,73.20
2022-12-19T21:20:57.390Z,80.47
2022-12-19T21:23:26.470Z,75.53
2022-12-19T21:25:54.435Z,79.60
2022-12-19T21:28:22.529Z,66.73
2022-12-19T21:31:03.502Z,90.13
2022-12-19T21:33:31.446Z,83.23
2022-12-19T21:35:59.304Z,115.00
2022-12-19T21:38:27.324Z,80.00
2022-12-19T21:40:55.280Z,78.77
2022-12-19T21:43:23.284Z,129.17
2022-12-19T21:45:51.556Z,78.17
2022-12-19T21:48:19.673Z,80.30
2022-12-19T21:50:47.883Z,75.80
2022-12-19T21:53:15.742Z,90.50
2022-12-19T21:55:43.730Z,74.83
2022-12-19T21:58:11.633Z,87.80
2022-12-19T22:00:39.547Z,91.17
2022-12-19T22:03:15.693Z,71.60
2022-12-19T22:05:43.706Z,92.27
2022-12-19T22:08:12.003Z,63.90
2022-12-19T22:10:40.957Z,71.83
2022-12-19T22:13:08.846Z,68.13
2022-12-19T22:15:37.706Z,122.80
2022-12-19T22:18:05.658Z,81.47
2022-12-19T22:20:33.451Z,76.73
2022-12-19T22:23:01.380Z,117.03
2022-12-19T22:25:29.153Z,100.43
2022-12-19T22:27:57.317Z,84.10
2022-12-19T22:30:25.165Z,112.77
2022-12-19T22:32:53.360Z,83.10
2022-12-19T22:35:21.266Z,87.63
2022-12-19T22:37:49.141Z,174.07
2022-12-19T22:40:17.056Z,95.10
2022-12-19T22:42:44.931Z,173.13
2022-12-19T22:45:13.220Z,188.83
2022-12-19T22:47:44.140Z,103.00
2022-12-19T22:50:12.105Z,120.00
2022-12-19T22:52:40.529Z,120.13
2022-12-19T22:55:08.650Z,101.10
2022-12-19T22:57:36.623Z,114.37
2022-12-19T23:00:06.963Z,84.70
2022-12-19T23:02:34.976Z,69.57
2022-12-19T23:05:02.853Z,85.50
2022-12-19T23:07:30.811Z,88.37
2022-12-19T23:09:58.638Z,100.60
2022-12-19T23:12:26.547Z,68.53
2022-12-19T23:14:54.550Z,103.03
2022-12-19T23:17:22.381Z,129.90
2022-12-19T23:19:50.149Z,132.10
2022-12-19T23:22:17.956Z,89.40
2022-12-19T23:24:46.138Z,110.33
2022-12-19T23:27:14.011Z,98.47
2022-12-19T23:29:43.640Z,84.17
2022-12-19T23:32:11.874Z,99.20
2022-12-19T23:34:39.854Z,120.80
2022-12-19T23:37:11.790Z,93.30
2022-12-19T23:39:40.183Z,94.27
2022-12-19T23:42:08.005Z,76.83
2022-12-19T23:44:36.013Z,84.33
2022-12-19T23:47:04.347Z,71.63
2022-12-19T23:49:33.509Z,78.90
2022-12-19T23:52:01.417Z,137.47
2022-12-19T23:54:29.235Z,76.30
2022-12-19T23:56:57.072Z,182.27
2022-12-19T23:59:25.016Z,104.53
